Terminal Aerodrome Forecast
Issued by NWS Memphis, TN

Home | Current Version | Previous Version | Text Only | Print | Product List | Glossary On
Versions: 1 2 3 4 5 6 7 8 9 10 11 12 13
000
FTUS44 KMEG 262330
TAFMKL
TAF
KMKL 262330Z 2700/2724 28010G15KT P6SM BKN045 OVC080
     FM270500 29010KT P6SM OVC025
     FM271100 31010KT P6SM OVC015
     FM271800 33008KT P6SM SCT250=

USA.gov is the U.S. government's official web portal to all federal, state and local government web resources and services.